Главная страница
METAR-TAF:

METAR-TAF

Аэропорты :

Clearfield-Lawrence Airport

Clearfield, Пенсильвания, США

широта: 41-02-48N, долгота: 078-24-42W, высота над уровнем моря: 462 м

Текущие метеонаблюдения

Эта сводка был подготовлена 11 минут назад, в 16:54 UTC
Ветер 3 Узел от восточно-северо-восточный
Температура 18°C
Влажность 28%
Давление 1025 hPa
Видимость: 16.1 км
небольшая облачность на высоте 8000 фута
Рассеянная облачность на высоте 9500 фута

METAR: KFIG 141654Z AUTO 07003KT 10SM FEW080 BKN095 18/M01 A3028 RMK AO2 SLP253 T01781011

Время: 13:05 (17:05 UTC)


TAF: отсутствует

Метеонаблюдения и прогнозы для более 4000 аэропортов (сводки METAR и TAF).

Имеющиеся станции представлены на карте желтыми и красными точками.

Чтобы увидеть название станции, наведите на нее мышь.

Затем щелкните, чтобы увидеть метеонаблюдения и метеопрогнозы.

Управление картой: чтобы увеличить масштаб, щелкните зеленые кнопки с черным крестиком; чтобы уменьшить масштаб, щелкните зеленую кнопку с тире; для просмотра соседних карт щелкайте зеленые стрелки.


METAR-TAF: